Aeroporto :
LOGIN :

Iscrizione | Disclaimer

   EN    FR    IT 

 










Sommario :    VFR   VFR Marginale   IFR   IFR Intensivo   IFR Molto Intensivo
Visibilità : 
Base nubi : 
>= 8 km
>= 3000ft
5 / 8 km
1000 / 3000 ft
1500m / 5 km
500 / 1000 ft
800 / 1500m
200 / 500 ft
< 800m
< 200 ft
Simboli :   Temporali  Nebbia  Neve Forte  Precipitazioni Forti  Vento > 20 kt
SIGMETs :   Varie  Temporali  Ghiacco  Turbolenza  Onda orograficha  Ceneri Vulcaniche






- Altitudine del aeroporto : 220 ft
- Codice IATA : CWL


EGFF - Cardiff Rhoose

ULTIMO METAR :
  • 241150Z AUTO 26019G29KT 9999 OVC010 11/10 Q1007

METARs OBSOLETI :
  • 241120Z AUTO 25019KT 6000 -RA OVC010/// //////TCU 10/10 Q1007 RERA
  • 241050Z AUTO 26020G30KT 4900 RA OVC011/// //////TCU 10/10 Q1007
  • 241020Z AUTO 25021KT 4100 RA OVC012/// //////CB 10/09 Q1007 RERA
  • 240950Z AUTO 25022G32KT 8000 -RA BKN015/// OVC022/// //////CB 10/09 Q1007
  • 240920Z 25021G31KT 7000 -RA BKN015TCU OVC020 10/09 Q1008 RERA

TAF AMD TAF EGFF
Valido dal 24 a 12 ore il 25 a 12 ore UTC


241156Z 2412/2512 25020G30KT 4000 RA BKN009
BECMG 2412/2415 28015G25KT 9999 NSW FEW030
PROB40
TEMPO 2412/2416 25025G40KT
PROB30
TEMPO 2420/2505 7000 SHRA BKN014
TEMPO 2505/2512 7000 SHRA
PROB30
TEMPO 2505/2512 26020G35KT 4000 +SHRAGS BKN010 BKN016CB
ATIS : +44 1446 729 319



MetMap, La meteo Aeronautica in un colpo d'occhio ! - Copyright ORBIFLY Dicembre 2007 - Disclaimer

ORBIFLY MET'MAP TEAM :

Programmazione e sviluppo : Alexandra Zaïnal
Concezione : Baudouin d'Aumeries
Aiuto per la programmazione : Marc-Olivier Méhu
Supporto tecnico e logistico : Manuel Goepfert
Aiuto per la traduzione : Arnaldo La Scala

Contatto : metmap@orbifly.com




FONTI E CREDITI :

   NOAA